createdAt,value
2018-03-12T00:00:20.137Z,4.70
2018-03-12T00:02:47.800Z,4.10
2018-03-12T00:05:15.389Z,3.97
2018-03-12T00:07:43.035Z,3.33
2018-03-12T00:10:10.708Z,3.17
2018-03-12T00:12:38.356Z,4.63
2018-03-12T00:15:05.973Z,3.80
2018-03-12T00:17:33.601Z,5.13
2018-03-12T00:20:01.218Z,3.30
2018-03-12T00:22:34.645Z,3.20
2018-03-12T00:25:02.234Z,3.50
2018-03-12T00:27:29.959Z,3.50
2018-03-12T00:29:57.566Z,3.70
2018-03-12T00:32:25.358Z,3.63
2018-03-12T00:34:52.947Z,3.97
2018-03-12T00:37:20.661Z,4.40
2018-03-12T00:39:48.361Z,3.60
2018-03-12T00:42:15.984Z,3.80
2018-03-12T00:44:43.662Z,3.80
2018-03-12T00:47:11.598Z,3.13
2018-03-12T00:49:39.282Z,4.73
2018-03-12T00:52:06.961Z,4.97
2018-03-12T00:54:34.706Z,3.20
2018-03-12T00:57:02.375Z,3.40
2018-03-12T00:59:29.994Z,3.80
2018-03-12T01:01:57.602Z,4.40
2018-03-12T01:04:25.540Z,2.90
2018-03-12T01:06:53.141Z,3.53
2018-03-12T01:09:26.297Z,3.83
2018-03-12T01:11:53.886Z,4.60
2018-03-12T01:14:21.660Z,3.73
2018-03-12T01:16:49.296Z,3.20
2018-03-12T01:19:16.892Z,3.83
2018-03-12T01:21:44.503Z,4.40
2018-03-12T01:24:12.089Z,4.37
2018-03-12T01:26:39.890Z,3.30
2018-03-12T01:29:07.482Z,4.80
2018-03-12T01:31:35.107Z,3.57
2018-03-12T01:34:02.752Z,4.10
2018-03-12T01:36:30.376Z,4.13
2018-03-12T01:38:57.963Z,3.60
2018-03-12T01:41:25.591Z,3.60
2018-03-12T01:43:53.215Z,3.83
2018-03-12T01:46:20.874Z,4.07
2018-03-12T01:48:48.474Z,5.03
2018-03-12T01:51:16.119Z,3.80
2018-03-12T01:53:43.744Z,4.07
2018-03-12T01:56:11.368Z,4.90
2018-03-12T01:58:38.950Z,4.60
2018-03-12T02:01:06.570Z,4.30
2018-03-12T02:03:34.203Z,3.70
2018-03-12T02:06:01.955Z,4.10
2018-03-12T02:08:29.533Z,4.33
2018-03-12T02:10:57.145Z,4.27
2018-03-12T02:13:24.746Z,4.07
2018-03-12T02:15:52.375Z,4.37
2018-03-12T02:18:20.026Z,5.10
2018-03-12T02:20:47.853Z,5.20
2018-03-12T02:23:16.453Z,5.90
2018-03-12T02:25:44.892Z,5.00
2018-03-12T02:28:13.092Z,5.03
2018-03-12T02:30:40.753Z,5.17
2018-03-12T02:33:08.548Z,6.23
2018-03-12T02:35:37.071Z,5.33
2018-03-12T02:38:04.726Z,5.90
2018-03-12T02:40:32.837Z,4.93
2018-03-12T02:43:00.432Z,4.60
2018-03-12T02:45:28.700Z,4.70
2018-03-12T02:47:56.329Z,4.70
2018-03-12T02:50:24.616Z,5.50
2018-03-12T02:52:52.347Z,4.60
2018-03-12T02:55:21.402Z,3.73
2018-03-12T02:57:49.528Z,6.30
2018-03-12T03:00:17.188Z,4.60
2018-03-12T03:02:44.813Z,4.30
2018-03-12T03:05:13.035Z,4.93
2018-03-12T03:07:40.673Z,4.37
2018-03-12T03:10:08.930Z,5.00
2018-03-12T03:12:37.385Z,7.03
2018-03-12T03:15:06.043Z,5.93
2018-03-12T03:17:34.519Z,6.03
2018-03-12T03:20:02.921Z,5.87
2018-03-12T03:22:31.460Z,5.43
2018-03-12T03:24:59.692Z,4.93
2018-03-12T03:27:28.189Z,5.67
2018-03-12T03:29:55.827Z,6.63
2018-03-12T03:32:23.468Z,6.63
2018-03-12T03:34:52.461Z,5.10
2018-03-12T03:37:20.068Z,5.40
2018-03-12T03:39:48.037Z,4.13
2018-03-12T03:42:15.648Z,5.03
2018-03-12T03:44:44.262Z,4.67
2018-03-12T03:47:12.559Z,4.43
2018-03-12T03:49:41.716Z,6.13
2018-03-12T03:52:10.084Z,5.37
2018-03-12T03:54:38.640Z,5.40
2018-03-12T03:57:06.280Z,5.13
2018-03-12T03:59:34.683Z,5.30
2018-03-12T04:02:02.291Z,6.43
2018-03-12T04:04:30.965Z,8.70
2018-03-12T04:06:59.184Z,6.50
2018-03-12T04:09:27.530Z,6.17
2018-03-12T04:11:55.923Z,5.00
2018-03-12T04:14:24.518Z,5.00
2018-03-12T04:16:52.213Z,6.80
2018-03-12T04:19:19.911Z,5.73
2018-03-12T04:21:47.548Z,5.83
2018-03-12T04:24:15.161Z,5.93
2018-03-12T04:26:43.684Z,6.43
2018-03-12T04:29:11.322Z,6.77
2018-03-12T04:31:39.598Z,6.37
2018-03-12T04:34:07.201Z,6.47
2018-03-12T04:36:34.848Z,7.83
2018-03-12T04:39:02.444Z,6.10
2018-03-12T04:41:30.100Z,4.37
2018-03-12T04:43:57.745Z,5.23
2018-03-12T04:46:26.362Z,5.60
2018-03-12T04:48:55.138Z,5.23
2018-03-12T04:51:24.355Z,5.50
2018-03-12T04:53:52.747Z,6.53
2018-03-12T04:56:20.623Z,6.57
2018-03-12T04:58:48.643Z,8.00
2018-03-12T05:01:16.282Z,11.30
2018-03-12T05:03:43.899Z,7.70
2018-03-12T05:06:11.943Z,17.83
2018-03-12T05:08:39.596Z,9.43
2018-03-12T05:11:07.279Z,7.23
2018-03-12T05:13:36.299Z,7.07
2018-03-12T05:16:04.025Z,10.53
2018-03-12T05:18:32.379Z,10.70
2018-03-12T05:21:00.732Z,9.57
2018-03-12T05:23:28.348Z,8.93
2018-03-12T05:25:55.992Z,8.53
2018-03-12T05:28:24.186Z,10.10
2018-03-12T05:30:52.478Z,8.50
2018-03-12T05:33:20.183Z,8.03
2018-03-12T05:35:48.214Z,8.80
2018-03-12T05:38:15.798Z,8.37
2018-03-12T05:40:44.248Z,38.13
2018-03-12T05:43:12.102Z,24.90
2018-03-12T05:45:39.798Z,10.13
2018-03-12T05:48:07.567Z,8.27
2018-03-12T05:50:36.185Z,6.70
2018-03-12T05:53:03.850Z,6.60
2018-03-12T05:55:33.741Z,8.50
2018-03-12T05:58:04.304Z,6.80
2018-03-12T06:00:35.203Z,6.67
2018-03-12T06:03:03.677Z,7.17
2018-03-12T06:05:33.148Z,7.03
2018-03-12T06:08:04.010Z,7.10
2018-03-12T06:10:33.767Z,7.33
2018-03-12T06:13:03.495Z,8.20
2018-03-12T06:15:33.808Z,6.43
2018-03-12T06:18:05.038Z,6.80
2018-03-12T06:20:34.590Z,6.47
2018-03-12T06:23:02.476Z,6.43
2018-03-12T06:25:30.779Z,7.03
2018-03-12T06:27:59.424Z,4.93
2018-03-12T06:30:28.828Z,6.27
2018-03-12T06:32:57.795Z,5.37
2018-03-12T06:35:42.550Z,5.10
2018-03-12T06:38:26.245Z,7.37
2018-03-12T06:41:04.526Z,7.23
2018-03-12T06:43:39.900Z,7.93
2018-03-12T06:46:08.447Z,7.43
2018-03-12T06:48:37.787Z,8.17
2018-03-12T06:51:06.093Z,8.23
2018-03-12T06:53:35.150Z,7.93
2018-03-12T06:56:04.041Z,9.03
2018-03-12T06:58:32.759Z,9.13
2018-03-12T07:01:00.425Z,9.03
2018-03-12T07:03:28.048Z,9.50
2018-03-12T07:05:55.792Z,9.77
2018-03-12T07:08:23.475Z,9.63
2018-03-12T07:10:51.137Z,8.27
2018-03-12T07:13:20.131Z,9.93
2018-03-12T07:15:48.045Z,9.23
2018-03-12T07:18:16.655Z,8.23
2018-03-12T07:20:45.060Z,8.30
2018-03-12T07:23:12.919Z,10.00
2018-03-12T07:25:40.585Z,10.43
2018-03-12T07:28:08.302Z,10.27
2018-03-12T07:30:35.962Z,9.90
2018-03-12T07:33:03.625Z,14.40
2018-03-12T07:35:32.179Z,9.40
2018-03-12T07:37:59.869Z,10.47
2018-03-12T07:40:27.544Z,12.33
2018-03-12T07:42:55.163Z,8.90
2018-03-12T07:45:22.872Z,8.57
2018-03-12T07:47:50.491Z,9.53
2018-03-12T07:50:18.223Z,9.07
2018-03-12T07:52:46.120Z,10.90
2018-03-12T07:55:13.771Z,10.30
2018-03-12T07:57:41.395Z,12.03
2018-03-12T08:00:09.003Z,12.90
2018-03-12T08:02:36.611Z,14.53
2018-03-12T08:05:04.246Z,12.60
2018-03-12T08:07:31.874Z,16.33
2018-03-12T08:09:59.501Z,11.73
2018-03-12T08:12:27.100Z,10.67
2018-03-12T08:14:54.716Z,10.70
2018-03-12T08:17:22.318Z,11.37
2018-03-12T08:19:49.943Z,10.87
2018-03-12T08:22:17.554Z,10.43
2018-03-12T08:24:45.182Z,12.67
2018-03-12T08:27:12.782Z,12.43
2018-03-12T08:29:40.553Z,13.23
2018-03-12T08:32:08.156Z,13.10
2018-03-12T08:34:35.787Z,14.00
2018-03-12T08:37:03.483Z,12.80
2018-03-12T08:39:31.175Z,10.83
2018-03-12T08:41:58.822Z,11.77
2018-03-12T08:44:26.411Z,11.63
2018-03-12T08:46:54.035Z,10.03
2018-03-12T08:49:21.621Z,10.90
2018-03-12T08:51:49.265Z,13.40
2018-03-12T08:54:16.874Z,10.23
2018-03-12T08:56:44.487Z,11.60
2018-03-12T08:59:12.122Z,9.97
2018-03-12T09:01:39.711Z,10.93
2018-03-12T09:04:07.340Z,11.47
2018-03-12T09:06:34.974Z,13.33
2018-03-12T09:09:02.594Z,10.20
2018-03-12T09:11:30.223Z,9.17
2018-03-12T09:13:57.871Z,9.87
2018-03-12T09:16:25.495Z,10.40
2018-03-12T09:18:53.095Z,14.80
2018-03-12T09:21:20.785Z,10.57
2018-03-12T09:23:48.383Z,11.30
2018-03-12T09:26:16.023Z,9.93
2018-03-12T09:28:43.625Z,12.40
2018-03-12T09:31:11.258Z,14.27
2018-03-12T09:33:38.892Z,13.67
2018-03-12T09:36:06.514Z,12.20
2018-03-12T09:38:34.089Z,9.70
2018-03-12T09:41:01.811Z,12.70
2018-03-12T09:43:29.423Z,13.67
2018-03-12T09:45:57.059Z,11.10
2018-03-12T09:48:24.666Z,9.20
2018-03-12T09:50:52.290Z,11.17
2018-03-12T09:53:19.914Z,10.80
2018-03-12T09:55:47.547Z,11.60
2018-03-12T09:58:15.250Z,10.77
2018-03-12T10:00:42.926Z,10.43
2018-03-12T10:03:10.572Z,12.23
2018-03-12T10:05:38.254Z,12.13
2018-03-12T10:08:05.868Z,9.13
2018-03-12T10:10:33.497Z,9.60
2018-03-12T10:13:01.171Z,9.40
2018-03-12T10:15:28.835Z,6.90
2018-03-12T10:17:56.451Z,9.10
2018-03-12T10:20:24.118Z,8.23
2018-03-12T10:22:51.718Z,8.60
2018-03-12T10:25:19.500Z,6.50
2018-03-12T10:27:47.099Z,6.87
2018-03-12T10:30:14.914Z,6.37
2018-03-12T10:32:42.492Z,7.20
2018-03-12T10:35:10.197Z,6.70
2018-03-12T10:37:37.839Z,4.87
2018-03-12T10:40:05.457Z,6.50
2018-03-12T10:42:33.064Z,5.50
2018-03-12T10:45:00.751Z,5.03
2018-03-12T10:47:28.445Z,5.47
2018-03-12T10:49:56.100Z,5.67
2018-03-12T10:52:23.811Z,4.70
2018-03-12T10:54:51.531Z,4.07
2018-03-12T10:57:19.152Z,4.77
2018-03-12T10:59:46.795Z,4.33
2018-03-12T11:02:14.374Z,5.83
2018-03-12T11:04:47.597Z,4.87
2018-03-12T11:07:15.202Z,6.27
2018-03-12T11:09:43.102Z,5.50
2018-03-12T11:12:10.735Z,4.30
2018-03-12T11:14:38.412Z,4.73
2018-03-12T11:17:06.056Z,3.80
2018-03-12T11:19:33.801Z,5.10
2018-03-12T11:22:01.439Z,5.17
2018-03-12T11:24:29.084Z,5.43
2018-03-12T11:26:56.760Z,4.00
2018-03-12T11:29:26.139Z,4.07
2018-03-12T11:31:53.778Z,3.80
2018-03-12T11:34:21.486Z,3.70
2018-03-12T11:36:49.078Z,4.63
2018-03-12T11:39:16.673Z,4.40
2018-03-12T11:41:44.321Z,2.43
2018-03-12T11:44:11.913Z,3.93
2018-03-12T11:46:39.524Z,4.37
2018-03-12T11:49:07.178Z,3.47
2018-03-12T11:51:34.803Z,2.50
2018-03-12T11:54:02.421Z,8.40
2018-03-12T11:56:30.056Z,1.80
2018-03-12T11:58:57.760Z,1.77
2018-03-12T12:01:25.478Z,3.10
2018-03-12T12:03:53.083Z,1.67
2018-03-12T12:06:20.704Z,2.13
2018-03-12T12:08:48.305Z,5.20
2018-03-12T12:11:15.915Z,2.23
2018-03-12T12:13:43.524Z,2.70
2018-03-12T12:16:11.194Z,2.70
2018-03-12T12:18:38.788Z,1.73
2018-03-12T12:21:06.419Z,1.73
2018-03-12T12:23:34.027Z,1.00
2018-03-12T12:26:01.692Z,3.60
2018-03-12T12:28:29.318Z,1.50
2018-03-12T12:30:56.949Z,2.00
2018-03-12T12:33:24.573Z,2.30
2018-03-12T12:35:52.176Z,1.77
2018-03-12T12:38:19.803Z,7.40
2018-03-12T12:40:47.405Z,1.83
2018-03-12T12:43:15.035Z,1.47
2018-03-12T12:45:42.716Z,4.47
2018-03-12T12:48:10.389Z,1.40
2018-03-12T12:50:38.006Z,1.03
2018-03-12T12:53:05.627Z,1.80
2018-03-12T12:55:33.350Z,1.00
2018-03-12T12:58:00.980Z,2.13
2018-03-12T13:00:28.570Z,1.90
2018-03-12T13:02:56.215Z,1.93
2018-03-12T13:05:23.798Z,1.40
2018-03-12T13:07:51.470Z,2.53
2018-03-12T13:10:19.087Z,1.43
2018-03-12T13:12:46.742Z,1.67
2018-03-12T13:15:14.349Z,1.90
2018-03-12T13:17:42.127Z,1.10
2018-03-12T13:20:09.833Z,4.70
2018-03-12T13:22:37.542Z,1.33
2018-03-12T13:25:05.133Z,1.27
2018-03-12T13:27:32.836Z,3.53
2018-03-12T13:30:00.528Z,3.20
2018-03-12T13:32:28.109Z,1.53
2018-03-12T13:34:55.699Z,3.03
2018-03-12T13:37:23.392Z,1.87
2018-03-12T13:39:50.986Z,3.10
2018-03-12T13:42:18.636Z,1.87
2018-03-12T13:44:46.309Z,5.93
2018-03-12T13:47:13.947Z,1.83
2018-03-12T13:49:41.562Z,2.03
2018-03-12T13:52:09.238Z,4.17
2018-03-12T13:54:36.863Z,3.33
2018-03-12T13:57:04.502Z,1.80
2018-03-12T13:59:32.085Z,2.20
2018-03-12T14:01:59.726Z,1.90
2018-03-12T14:04:27.362Z,5.47
2018-03-12T14:06:55.042Z,0.93
2018-03-12T14:09:22.642Z,1.40
2018-03-12T14:11:50.294Z,3.20
2018-03-12T14:14:17.944Z,9.73
2018-03-12T14:16:45.634Z,1.13
2018-03-12T14:19:13.255Z,1.00
2018-03-12T14:21:41.062Z,2.03
2018-03-12T14:24:08.725Z,4.03
2018-03-12T14:26:36.338Z,1.83
2018-03-12T14:29:04.055Z,3.40
2018-03-12T14:31:31.822Z,1.80
2018-03-12T14:33:59.455Z,0.77
2018-03-12T14:36:27.113Z,1.00
2018-03-12T14:38:54.767Z,1.30
2018-03-12T14:41:22.369Z,1.90
2018-03-12T14:43:50.006Z,2.93
2018-03-12T14:46:17.704Z,1.00
2018-03-12T14:48:46.276Z,3.63
2018-03-12T14:51:13.888Z,1.90
2018-03-12T14:53:41.515Z,2.93
2018-03-12T14:56:09.132Z,1.67
2018-03-12T14:58:36.906Z,2.10
2018-03-12T15:01:04.590Z,1.00
2018-03-12T15:03:32.270Z,0.90
2018-03-12T15:06:00.190Z,1.40
2018-03-12T15:08:27.978Z,0.83
2018-03-12T15:10:55.927Z,1.33
2018-03-12T15:13:23.614Z,1.03
2018-03-12T15:15:51.329Z,1.30
2018-03-12T15:18:18.951Z,1.00
2018-03-12T15:20:46.563Z,1.73
2018-03-12T15:23:14.203Z,1.67
2018-03-12T15:25:41.818Z,4.20
2018-03-12T15:28:09.440Z,2.90
2018-03-12T15:30:37.081Z,1.47
2018-03-12T15:33:04.840Z,1.30
2018-03-12T15:35:32.622Z,1.50
2018-03-12T15:38:00.330Z,1.20
2018-03-12T15:40:28.180Z,1.30
2018-03-12T15:42:56.031Z,2.83
2018-03-12T15:45:23.786Z,1.50
2018-03-12T15:47:51.477Z,0.90
2018-03-12T15:50:19.148Z,1.37
2018-03-12T15:52:46.802Z,0.90
2018-03-12T15:55:14.454Z,2.87
2018-03-12T15:57:42.068Z,1.47
2018-03-12T16:00:09.887Z,2.47
2018-03-12T16:02:37.518Z,1.43
2018-03-12T16:05:05.174Z,1.30
2018-03-12T16:07:32.852Z,1.50
2018-03-12T16:10:00.435Z,0.80
2018-03-12T16:12:28.049Z,1.43
2018-03-12T16:14:55.658Z,0.80
2018-03-12T16:17:23.303Z,1.03
2018-03-12T16:19:50.946Z,1.03
2018-03-12T16:22:18.532Z,1.33
2018-03-12T16:24:46.185Z,3.03
2018-03-12T16:27:13.806Z,2.43
2018-03-12T16:29:41.427Z,3.77
2018-03-12T16:32:09.015Z,4.13
2018-03-12T16:34:36.654Z,1.47
2018-03-12T16:37:04.319Z,2.90
2018-03-12T16:39:31.961Z,0.90
2018-03-12T16:41:59.572Z,1.20
2018-03-12T16:44:27.192Z,2.57
2018-03-12T16:46:54.806Z,1.00
2018-03-12T16:49:22.455Z,1.50
2018-03-12T16:51:50.164Z,1.50
2018-03-12T16:54:17.985Z,0.80
2018-03-12T16:56:45.610Z,1.33
2018-03-12T16:59:13.249Z,0.80
2018-03-12T17:01:40.902Z,3.00
2018-03-12T17:04:08.673Z,2.00
2018-03-12T17:06:36.287Z,0.80
2018-03-12T17:09:04.040Z,1.30
2018-03-12T17:11:31.695Z,1.87
2018-03-12T17:13:59.347Z,1.77
2018-03-12T17:16:27.053Z,3.07
2018-03-12T17:19:19.028Z,2.90
2018-03-12T17:21:53.203Z,4.40
2018-03-12T17:24:23.971Z,2.80
2018-03-12T17:26:51.645Z,2.57
2018-03-12T17:29:19.307Z,7.57
2018-03-12T17:31:46.954Z,6.80
2018-03-12T17:34:14.614Z,3.67
2018-03-12T17:36:42.208Z,3.53
2018-03-12T17:39:09.842Z,2.00
2018-03-12T17:41:37.500Z,1.37
2018-03-12T17:44:05.179Z,2.43
2018-03-12T17:46:32.770Z,2.83
2018-03-12T17:49:00.530Z,2.33
2018-03-12T17:51:28.134Z,1.03
2018-03-12T17:53:55.966Z,3.70
2018-03-12T17:56:24.235Z,4.03
2018-03-12T17:58:52.555Z,2.17
2018-03-12T18:01:20.696Z,0.90
2018-03-12T18:03:49.353Z,2.20
2018-03-12T18:06:17.284Z,0.90
2018-03-12T18:08:45.524Z,1.60
2018-03-12T18:11:13.207Z,2.20
2018-03-12T18:13:41.579Z,2.83
2018-03-12T18:16:10.408Z,2.60
2018-03-12T18:18:38.056Z,1.40
2018-03-12T18:21:06.469Z,2.70
2018-03-12T18:23:34.846Z,6.17
2018-03-12T18:26:03.266Z,1.90
2018-03-12T18:28:30.899Z,1.13
2018-03-12T18:30:59.317Z,1.50
2018-03-12T18:33:26.921Z,2.00
2018-03-12T18:35:54.656Z,1.23
2018-03-12T18:38:22.299Z,1.63
2018-03-12T18:40:49.964Z,2.70
2018-03-12T18:43:17.612Z,2.23
2018-03-12T18:45:45.287Z,2.97
2018-03-12T18:48:13.766Z,1.00
2018-03-12T18:50:41.395Z,0.70
2018-03-12T18:53:08.985Z,1.00
2018-03-12T18:55:36.608Z,0.80
2018-03-12T18:58:04.205Z,1.37
2018-03-12T19:00:31.920Z,2.33
2018-03-12T19:02:59.535Z,2.47
2018-03-12T19:05:27.250Z,2.10
2018-03-12T19:07:54.826Z,1.83
2018-03-12T19:10:22.450Z,1.40
2018-03-12T19:12:50.095Z,1.17
2018-03-12T19:15:17.753Z,1.00
2018-03-12T19:17:45.505Z,2.90
2018-03-12T19:20:13.112Z,3.27
2018-03-12T19:42:08.842Z,1.40
2018-03-12T19:44:36.470Z,5.53
2018-03-12T19:47:04.061Z,3.07
2018-03-12T19:49:31.765Z,1.53
2018-03-12T19:51:59.399Z,1.50
2018-03-12T19:54:27.010Z,5.80
2018-03-12T19:56:54.633Z,1.33
2018-03-12T19:59:22.281Z,1.10
2018-03-12T20:01:49.974Z,1.60
2018-03-12T20:04:17.790Z,4.10
2018-03-12T20:06:45.502Z,1.40
2018-03-12T20:09:27.044Z,1.57
2018-03-12T20:11:58.213Z,1.37
2018-03-12T20:17:20.787Z,1.73
2018-03-12T20:19:48.552Z,2.03
2018-03-12T20:22:16.160Z,1.60
2018-03-12T20:24:43.798Z,13.40
2018-03-12T20:27:11.383Z,2.00
2018-03-12T20:29:39.002Z,2.47
2018-03-12T20:32:08.759Z,1.83
2018-03-12T20:34:36.701Z,1.50
2018-03-12T20:37:04.285Z,1.90
2018-03-12T20:39:31.906Z,2.00
2018-03-12T20:41:59.785Z,2.20
2018-03-12T20:44:27.447Z,1.53
2018-03-12T20:46:55.094Z,1.27
2018-03-12T20:49:22.690Z,8.53
2018-03-12T20:51:50.286Z,1.20
2018-03-12T20:54:17.915Z,1.33
2018-03-12T20:56:45.521Z,1.10
2018-03-12T20:59:13.148Z,1.57
2018-03-12T21:01:40.746Z,1.60
2018-03-12T21:04:08.383Z,1.20
2018-03-12T21:06:36.054Z,2.60
2018-03-12T21:09:03.660Z,1.50
2018-03-12T21:11:31.254Z,1.97
2018-03-12T21:13:58.881Z,1.60
2018-03-12T21:16:26.482Z,3.33
2018-03-12T21:18:54.103Z,12.50
2018-03-12T21:21:21.703Z,5.33
2018-03-12T21:23:49.342Z,20.10
2018-03-12T21:26:16.941Z,14.53
2018-03-12T21:28:44.582Z,25.50
2018-03-12T21:31:12.244Z,3.40
2018-03-12T21:33:39.960Z,4.80
2018-03-12T21:36:07.633Z,4.77
2018-03-12T21:38:35.265Z,17.00
2018-03-12T21:41:03.038Z,1.63
2018-03-12T21:43:30.663Z,0.87
2018-03-12T21:45:58.270Z,1.37
2018-03-12T21:48:25.919Z,1.57
2018-03-12T21:50:53.528Z,0.90
2018-03-12T21:53:21.154Z,1.67
2018-03-12T21:55:48.745Z,2.03
2018-03-12T21:58:16.363Z,1.40
2018-03-12T22:00:43.970Z,2.70
2018-03-12T22:03:11.558Z,1.90
2018-03-12T22:05:39.166Z,2.30
2018-03-12T22:08:06.922Z,1.53
2018-03-12T22:10:34.531Z,1.90
2018-03-12T22:13:02.275Z,1.60
2018-03-12T22:15:29.905Z,1.10
2018-03-12T22:17:57.655Z,2.80
2018-03-12T22:20:25.341Z,1.00
2018-03-12T22:22:52.966Z,1.13
2018-03-12T22:25:20.573Z,1.10
2018-03-12T22:27:48.158Z,2.10
2018-03-12T22:30:15.831Z,1.30
2018-03-12T22:32:43.421Z,2.37
2018-03-12T22:35:11.041Z,0.77
2018-03-12T22:37:38.626Z,1.10
2018-03-12T22:40:06.266Z,3.00
2018-03-12T22:42:33.881Z,1.47
2018-03-12T22:45:01.468Z,2.60
2018-03-12T22:47:29.050Z,1.03
2018-03-12T22:49:56.790Z,1.47
2018-03-12T22:52:24.362Z,1.20
2018-03-12T22:54:51.982Z,3.30
2018-03-12T22:57:19.582Z,1.90
2018-03-12T22:59:47.187Z,2.30
2018-03-12T23:02:14.793Z,2.03
2018-03-12T23:04:42.466Z,2.03
2018-03-12T23:07:10.076Z,1.10
2018-03-12T23:09:37.658Z,1.97
2018-03-12T23:12:05.293Z,1.40
2018-03-12T23:14:32.875Z,1.10
2018-03-12T23:17:00.530Z,1.10
2018-03-12T23:19:28.136Z,1.53
2018-03-12T23:21:55.718Z,1.43
2018-03-12T23:24:23.337Z,1.30
2018-03-12T23:26:53.807Z,1.83
2018-03-12T23:29:21.877Z,1.10
2018-03-12T23:31:49.492Z,1.67
2018-03-12T23:34:17.292Z,1.23
2018-03-12T23:36:44.928Z,2.07
2018-03-12T23:39:12.848Z,1.57
2018-03-12T23:41:40.471Z,2.70
2018-03-12T23:44:08.075Z,1.17
2018-03-12T23:46:35.714Z,1.20
2018-03-12T23:49:03.316Z,2.20
2018-03-12T23:51:31.717Z,6.70
2018-03-12T23:53:59.324Z,1.20
2018-03-12T23:56:27.308Z,1.63
2018-03-12T23:58:55.821Z,2.13
